Moultrie, Georgia
Current Conditions -  °F | °C
As of 5:15 PM on Saturday 20 Dec 2014 (Local Time) from KMGR Reporting Station
Overcast Overcast  
Wind Chill: 55°   Ceiling: 8500
Heat Index: 55°   Visibility: 10mi
Dew Point: 52°   Wind: 0mph
Humidity: 88%   Direction: NA
Pressure: 30.13"   Gusts: NA
Location:  31.18°N, 83.79°W
Report Text: KMGR 202215Z AUTO 00000KT 10SM OVC085 13/11 A3013 RMK AO2
Loading
Personal Weather Stations






























Interactive Weather Map New forecast layout! Learn more

10-Day Weather Forecast

Advertisements
Track Severe Weather on mobile